ABY103 OMSJ-OBBI
Flight info
| Callsign | ABY103 |
|---|---|
| Flight time | 2h 23m |
| Altitude | 32000 |
| Route | ANVIX5R ANVIX R401 GIDIS G783 VAVIM DCT ESROM M318 GOLGU M550 MIGMA DCT SITUK M321 KIA H976 MUSRI L604 KFA M691 LADNA |
| Aircraft | A320/M-SDE3FGHIRWY/LB1 |
Departure
| Time | 2026-04-21 13:21 |
|---|---|
| Airport | Sharjah International Airport (OMSJ) |
Arrival
| Time | 2026-04-21 15:45 |
|---|---|
| Airport | Bahrain International Airport (OBBI) |
| Time | Latitude | Longitude | Altitude | Speed | Heading |
|---|---|---|---|---|---|
| 2026-04-21 13:02 | 25.32154 | 55.52351 | 115 ft | 0 kts | 302° |
| 2026-04-21 13:10 | 25.32147 | 55.52363 | 112 ft | 2 kts | 302° |
| 2026-04-21 13:10 | 25.32138 | 55.52379 | 112 ft | 2 kts | 302° |
| 2026-04-21 13:10 | 25.32129 | 55.52395 | 113 ft | 3 kts | 314° |
| 2026-04-21 13:11 | 25.32117 | 55.52405 | 111 ft | 0 kts | 345° |
| 2026-04-21 13:15 | 25.32121 | 55.52406 | 111 ft | 2 kts | 358° |
| 2026-04-21 13:15 | 25.32142 | 55.52415 | 112 ft | 3 kts | 27° |
| 2026-04-21 13:15 | 25.32157 | 55.52425 | 117 ft | 4 kts | 33° |
| 2026-04-21 13:15 | 25.32196 | 55.52453 | 113 ft | 9 kts | 32° |
| 2026-04-21 13:16 | 25.32261 | 55.52498 | 113 ft | 13 kts | 32° |
| 2026-04-21 13:16 | 25.32346 | 55.52558 | 115 ft | 15 kts | 32° |
| 2026-04-21 13:16 | 25.32427 | 55.52613 | 117 ft | 7 kts | 32° |
| 2026-04-21 13:16 | 25.32432 | 55.52617 | 117 ft | 0 kts | 33° |
| 2026-04-21 13:18 | 25.32438 | 55.52621 | 117 ft | 4 kts | 34° |
| 2026-04-21 13:18 | 25.32475 | 55.52647 | 118 ft | 9 kts | 32° |
| 2026-04-21 13:18 | 25.32533 | 55.52698 | 118 ft | 10 kts | 50° |
| 2026-04-21 13:18 | 25.32569 | 55.52692 | 117 ft | 4 kts | 300° |
| 2026-04-21 13:20 | 25.32569 | 55.52691 | 117 ft | 0 kts | 300° |
| 2026-04-21 13:20 | 25.32665 | 55.52526 | 116 ft | 61 kts | 302° |
| 2026-04-21 13:20 | 25.33010 | 55.51924 | 115 ft | 122 kts | 303° |
| 2026-04-21 13:20 | 25.33556 | 55.50975 | 116 ft | 169 kts | 302° |
| 2026-04-21 13:21 | 25.34216 | 55.49823 | 621 ft | 175 kts | 306° |
| 2026-04-21 13:21 | 25.34872 | 55.48673 | 1210 ft | 184 kts | 305° |
| 2026-04-21 13:21 | 25.35600 | 55.47414 | 1464 ft | 205 kts | 306° |
| 2026-04-21 13:21 | 25.36411 | 55.46017 | 1624 ft | 228 kts | 306° |
| 2026-04-21 13:22 | 25.37299 | 55.44488 | 2065 ft | 240 kts | 304° |
| 2026-04-21 13:22 | 25.38204 | 55.42923 | 2728 ft | 243 kts | 304° |
| 2026-04-21 13:22 | 25.39123 | 55.41332 | 3409 ft | 248 kts | 304° |
| 2026-04-21 13:22 | 25.40054 | 55.39720 | 4128 ft | 249 kts | 302° |
| 2026-04-21 13:23 | 25.40999 | 55.38115 | 4830 ft | 250 kts | 298° |
| 2026-04-21 13:23 | 25.41521 | 55.36301 | 5472 ft | 250 kts | 270° |
| 2026-04-21 13:23 | 25.41379 | 55.35046 | 5903 ft | 250 kts | 251° |
| 2026-04-21 13:24 | 25.40611 | 55.33614 | 6451 ft | 252 kts | 225° |
| 2026-04-21 13:24 | 25.39154 | 55.32616 | 7065 ft | 256 kts | 197° |
| 2026-04-21 13:24 | 25.37368 | 55.32522 | 7706 ft | 263 kts | 169° |
| 2026-04-21 13:25 | 25.35699 | 55.33385 | 8352 ft | 271 kts | 147° |
| 2026-04-21 13:25 | 25.34198 | 55.34689 | 8861 ft | 277 kts | 143° |
| 2026-04-21 13:25 | 25.32689 | 55.36030 | 9037 ft | 286 kts | 146° |
| 2026-04-21 13:25 | 25.31196 | 55.37210 | 9384 ft | 298 kts | 148° |
| 2026-04-21 13:26 | 25.30270 | 55.37929 | 9698 ft | 300 kts | 149° |
| 2026-04-21 13:26 | 25.28595 | 55.39038 | 10136 ft | 308 kts | 151° |
| 2026-04-21 13:26 | 25.26752 | 55.40433 | 10268 ft | 333 kts | 146° |
| 2026-04-21 13:26 | 25.24877 | 55.42054 | 10487 ft | 351 kts | 143° |
| 2026-04-21 13:27 | 25.22986 | 55.43790 | 11016 ft | 356 kts | 142° |
| 2026-04-21 13:27 | 25.21092 | 55.45579 | 11639 ft | 359 kts | 142° |
| 2026-04-21 13:27 | 25.19241 | 55.47406 | 12173 ft | 362 kts | 140° |
| 2026-04-21 13:27 | 25.17348 | 55.49304 | 12843 ft | 363 kts | 141° |
| 2026-04-21 13:28 | 25.15446 | 55.51152 | 13476 ft | 365 kts | 142° |
| 2026-04-21 13:28 | 25.13501 | 55.52963 | 14046 ft | 367 kts | 143° |
| 2026-04-21 13:28 | 25.11510 | 55.54750 | 14572 ft | 370 kts | 144° |
| 2026-04-21 13:28 | 25.09511 | 55.56503 | 15085 ft | 373 kts | 144° |
| 2026-04-21 13:29 | 25.07437 | 55.58305 | 15610 ft | 377 kts | 145° |
| 2026-04-21 13:29 | 25.05368 | 55.60099 | 16124 ft | 380 kts | 145° |
| 2026-04-21 13:29 | 25.03310 | 55.61886 | 16638 ft | 383 kts | 145° |
| 2026-04-21 13:29 | 25.01184 | 55.63739 | 17161 ft | 386 kts | 144° |
| 2026-04-21 13:30 | 24.99101 | 55.65560 | 17667 ft | 389 kts | 144° |
| 2026-04-21 13:30 | 24.96975 | 55.67424 | 18161 ft | 392 kts | 144° |
| 2026-04-21 13:30 | 24.94855 | 55.69340 | 18586 ft | 397 kts | 140° |
| 2026-04-21 13:30 | 24.92994 | 55.71609 | 19016 ft | 403 kts | 130° |
| 2026-04-21 13:31 | 24.91337 | 55.74123 | 19419 ft | 407 kts | 129° |
| 2026-04-21 13:31 | 24.89669 | 55.76653 | 19834 ft | 409 kts | 129° |
| 2026-04-21 13:31 | 24.87986 | 55.79196 | 20234 ft | 412 kts | 129° |
| 2026-04-21 13:31 | 24.86289 | 55.81753 | 20627 ft | 415 kts | 129° |
| 2026-04-21 13:32 | 24.84575 | 55.84331 | 21020 ft | 418 kts | 129° |
| 2026-04-21 13:32 | 24.82848 | 55.86921 | 21421 ft | 421 kts | 130° |
| 2026-04-21 13:32 | 24.80942 | 55.89361 | 21793 ft | 419 kts | 141° |
| 2026-04-21 13:32 | 24.78642 | 55.91307 | 22156 ft | 416 kts | 153° |
| 2026-04-21 13:33 | 24.76057 | 55.92696 | 22511 ft | 413 kts | 164° |
| 2026-04-21 13:33 | 24.73300 | 55.93535 | 22877 ft | 410 kts | 175° |
| 2026-04-21 13:33 | 24.70481 | 55.93680 | 23256 ft | 405 kts | 188° |
| 2026-04-21 13:33 | 24.67664 | 55.93460 | 23555 ft | 408 kts | 187° |
| 2026-04-21 13:34 | 24.64819 | 55.93307 | 23885 ft | 410 kts | 187° |
| 2026-04-21 13:34 | 24.61999 | 55.92892 | 24196 ft | 408 kts | 197° |
| 2026-04-21 13:34 | 24.59311 | 55.91944 | 24512 ft | 405 kts | 207° |
| 2026-04-21 13:34 | 24.56848 | 55.90467 | 24820 ft | 404 kts | 217° |
| 2026-04-21 13:35 | 24.54778 | 55.88472 | 25106 ft | 402 kts | 228° |
| 2026-04-21 13:35 | 24.52820 | 55.86256 | 25387 ft | 405 kts | 227° |
| 2026-04-21 13:35 | 24.50802 | 55.84087 | 25680 ft | 408 kts | 225° |
| 2026-04-21 13:35 | 24.48713 | 55.81969 | 25981 ft | 410 kts | 224° |
| 2026-04-21 13:36 | 24.46561 | 55.79885 | 26271 ft | 413 kts | 223° |
| 2026-04-21 13:36 | 24.44381 | 55.77825 | 26551 ft | 415 kts | 222° |
| 2026-04-21 13:36 | 24.42181 | 55.75762 | 26850 ft | 417 kts | 222° |
| 2026-04-21 13:36 | 24.39952 | 55.73704 | 27137 ft | 420 kts | 220° |
| 2026-04-21 13:37 | 24.37642 | 55.71732 | 27428 ft | 422 kts | 219° |
| 2026-04-21 13:37 | 24.35309 | 55.69767 | 27709 ft | 424 kts | 220° |
| 2026-04-21 13:37 | 24.32991 | 55.67749 | 27989 ft | 426 kts | 221° |
| 2026-04-21 13:37 | 24.30704 | 55.65660 | 28259 ft | 428 kts | 222° |
| 2026-04-21 13:38 | 24.28449 | 55.63514 | 28527 ft | 430 kts | 223° |
| 2026-04-21 13:38 | 24.26258 | 55.61279 | 28780 ft | 431 kts | 229° |
| 2026-04-21 13:38 | 24.24455 | 55.58656 | 29020 ft | 432 kts | 238° |
| 2026-04-21 13:38 | 24.22788 | 55.55918 | 29264 ft | 434 kts | 236° |
| 2026-04-21 13:39 | 24.21016 | 55.53224 | 29491 ft | 436 kts | 234° |
| 2026-04-21 13:39 | 24.19162 | 55.50585 | 29739 ft | 438 kts | 232° |
| 2026-04-21 13:39 | 24.17248 | 55.47983 | 29960 ft | 440 kts | 230° |
| 2026-04-21 13:39 | 24.15028 | 55.45662 | 30158 ft | 444 kts | 219° |
| 2026-04-21 13:40 | 24.12440 | 55.43782 | 30427 ft | 446 kts | 211° |
| 2026-04-21 13:40 | 24.09608 | 55.42387 | 30713 ft | 449 kts | 201° |
| 2026-04-21 13:40 | 24.06597 | 55.41443 | 30966 ft | 450 kts | 198° |
| 2026-04-21 13:40 | 24.03609 | 55.40568 | 31210 ft | 451 kts | 198° |
| 2026-04-21 13:41 | 24.00584 | 55.39670 | 31464 ft | 451 kts | 198° |
| 2026-04-21 13:41 | 23.97516 | 55.38756 | 31695 ft | 452 kts | 198° |
| 2026-04-21 13:41 | 23.91515 | 55.37011 | 31773 ft | 441 kts | 198° |
| 2026-04-21 13:42 | 23.85638 | 55.35354 | 31768 ft | 438 kts | 198° |
| 2026-04-21 13:42 | 23.79772 | 55.33561 | 31768 ft | 437 kts | 199° |
| 2026-04-21 13:43 | 23.74370 | 55.30766 | 31768 ft | 427 kts | 221° |
| 2026-04-21 13:43 | 23.72246 | 55.28522 | 31765 ft | 423 kts | 233° |
| 2026-04-21 13:43 | 23.70633 | 55.25865 | 31760 ft | 419 kts | 245° |
| 2026-04-21 13:44 | 23.69663 | 55.22888 | 31758 ft | 416 kts | 260° |
| 2026-04-21 13:44 | 23.69333 | 55.19771 | 31753 ft | 415 kts | 265° |
| 2026-04-21 13:44 | 23.68691 | 55.13509 | 31743 ft | 416 kts | 263° |
| 2026-04-21 13:45 | 23.67870 | 55.07263 | 31740 ft | 416 kts | 262° |
| 2026-04-21 13:45 | 23.67045 | 55.01014 | 31740 ft | 417 kts | 262° |
| 2026-04-21 13:46 | 23.66116 | 54.94767 | 31741 ft | 417 kts | 261° |
| 2026-04-21 13:46 | 23.65252 | 54.88499 | 31740 ft | 418 kts | 264° |
| 2026-04-21 13:47 | 23.64616 | 54.82198 | 31746 ft | 418 kts | 264° |
| 2026-04-21 13:47 | 23.63931 | 54.75896 | 31749 ft | 419 kts | 263° |
| 2026-04-21 13:48 | 23.63147 | 54.69603 | 31753 ft | 419 kts | 263° |
| 2026-04-21 13:48 | 23.62331 | 54.63309 | 31752 ft | 419 kts | 263° |
| 2026-04-21 13:49 | 23.61534 | 54.57016 | 31754 ft | 419 kts | 263° |
| 2026-04-21 13:49 | 23.60755 | 54.50714 | 31758 ft | 419 kts | 263° |
| 2026-04-21 13:50 | 23.59973 | 54.44426 | 31764 ft | 418 kts | 263° |
| 2026-04-21 13:50 | 23.59210 | 54.38142 | 31769 ft | 418 kts | 263° |
| 2026-04-21 13:51 | 23.58443 | 54.31871 | 31765 ft | 417 kts | 263° |
| 2026-04-21 13:51 | 23.57658 | 54.25613 | 31776 ft | 416 kts | 263° |
| 2026-04-21 13:52 | 23.56866 | 54.19371 | 31777 ft | 415 kts | 263° |
| 2026-04-21 13:52 | 23.56096 | 54.13309 | 31776 ft | 415 kts | 263° |
| 2026-04-21 13:53 | 23.55306 | 54.07088 | 31781 ft | 414 kts | 264° |
| 2026-04-21 13:53 | 23.54515 | 54.00878 | 31782 ft | 413 kts | 264° |
| 2026-04-21 13:54 | 23.53723 | 53.94682 | 31790 ft | 412 kts | 264° |
| 2026-04-21 13:54 | 23.52930 | 53.88504 | 31791 ft | 411 kts | 264° |
| 2026-04-21 13:55 | 23.52137 | 53.82342 | 31783 ft | 410 kts | 264° |
| 2026-04-21 13:55 | 23.51477 | 53.77226 | 31788 ft | 410 kts | 264° |
| 2026-04-21 13:56 | 23.50682 | 53.71085 | 31784 ft | 409 kts | 264° |
| 2026-04-21 13:56 | 23.49885 | 53.64948 | 31787 ft | 409 kts | 264° |
| 2026-04-21 13:57 | 23.49087 | 53.58820 | 31786 ft | 408 kts | 264° |
| 2026-04-21 13:57 | 23.48287 | 53.52695 | 31787 ft | 408 kts | 264° |
| 2026-04-21 13:58 | 23.47486 | 53.46584 | 31778 ft | 407 kts | 264° |
| 2026-04-21 13:58 | 23.46684 | 53.40479 | 31784 ft | 407 kts | 264° |
| 2026-04-21 13:59 | 23.45879 | 53.34377 | 31778 ft | 407 kts | 264° |
| 2026-04-21 13:59 | 23.45074 | 53.28291 | 31781 ft | 406 kts | 264° |
| 2026-04-21 14:00 | 23.44267 | 53.22204 | 31781 ft | 406 kts | 264° |
| 2026-04-21 14:00 | 23.43459 | 53.16135 | 31777 ft | 405 kts | 264° |
| 2026-04-21 14:01 | 23.42647 | 53.10051 | 31769 ft | 405 kts | 264° |
| 2026-04-21 14:01 | 23.41835 | 53.03985 | 31778 ft | 405 kts | 264° |
| 2026-04-21 14:02 | 23.40992 | 52.97930 | 31778 ft | 405 kts | 260° |
| 2026-04-21 14:03 | 23.37470 | 52.89490 | 31770 ft | 412 kts | 245° |
| 2026-04-21 14:03 | 23.34672 | 52.84050 | 31772 ft | 412 kts | 245° |
| 2026-04-21 14:04 | 23.31884 | 52.78617 | 31770 ft | 411 kts | 245° |
| 2026-04-21 14:04 | 23.29096 | 52.73188 | 31770 ft | 411 kts | 245° |
| 2026-04-21 14:05 | 23.26307 | 52.67771 | 31767 ft | 410 kts | 245° |
| 2026-04-21 14:05 | 23.23519 | 52.62362 | 31764 ft | 409 kts | 245° |
| 2026-04-21 14:06 | 23.20753 | 52.57002 | 31766 ft | 409 kts | 245° |
| 2026-04-21 14:06 | 23.18067 | 52.51565 | 31759 ft | 405 kts | 252° |
| 2026-04-21 14:07 | 23.16207 | 52.45779 | 31757 ft | 403 kts | 255° |
| 2026-04-21 14:07 | 23.14392 | 52.40045 | 31756 ft | 403 kts | 255° |
| 2026-04-21 14:08 | 23.12751 | 52.34250 | 31755 ft | 401 kts | 257° |
| 2026-04-21 14:08 | 23.11172 | 52.28484 | 31750 ft | 401 kts | 256° |
| 2026-04-21 14:09 | 23.09415 | 52.22734 | 31746 ft | 401 kts | 255° |
| 2026-04-21 14:09 | 23.07570 | 52.17007 | 31745 ft | 402 kts | 254° |
| 2026-04-21 14:10 | 23.05727 | 52.11283 | 31744 ft | 402 kts | 255° |
| 2026-04-21 14:10 | 23.03903 | 52.05552 | 31744 ft | 401 kts | 255° |
| 2026-04-21 14:11 | 23.02089 | 51.99829 | 31743 ft | 401 kts | 255° |
| 2026-04-21 14:11 | 23.00271 | 51.94107 | 31747 ft | 401 kts | 255° |
| 2026-04-21 14:12 | 22.98448 | 51.88396 | 31746 ft | 401 kts | 253° |
| 2026-04-21 14:12 | 22.96301 | 51.82791 | 31748 ft | 401 kts | 254° |
| 2026-04-21 14:13 | 22.94610 | 51.77054 | 31754 ft | 399 kts | 257° |
| 2026-04-21 14:13 | 22.92987 | 51.71304 | 31758 ft | 399 kts | 256° |
| 2026-04-21 14:14 | 22.91217 | 51.65598 | 31753 ft | 399 kts | 255° |
| 2026-04-21 14:14 | 22.89370 | 51.59923 | 31755 ft | 399 kts | 255° |
| 2026-04-21 14:15 | 22.87518 | 51.54252 | 31755 ft | 399 kts | 255° |
| 2026-04-21 14:15 | 22.85709 | 51.48572 | 31759 ft | 396 kts | 258° |
| 2026-04-21 14:16 | 22.85208 | 51.42721 | 31763 ft | 389 kts | 276° |
| 2026-04-21 14:16 | 22.85598 | 51.36875 | 31764 ft | 389 kts | 275° |
| 2026-04-21 14:17 | 22.85965 | 51.31033 | 31764 ft | 388 kts | 275° |
| 2026-04-21 14:17 | 22.86329 | 51.25195 | 31765 ft | 388 kts | 275° |
| 2026-04-21 14:18 | 22.86696 | 51.19362 | 31761 ft | 388 kts | 275° |
| 2026-04-21 14:18 | 22.87061 | 51.13571 | 31759 ft | 387 kts | 275° |
| 2026-04-21 14:19 | 22.87426 | 51.07744 | 31759 ft | 387 kts | 275° |
| 2026-04-21 14:19 | 22.87787 | 51.01922 | 31758 ft | 387 kts | 275° |
| 2026-04-21 14:20 | 22.88146 | 50.96115 | 31753 ft | 386 kts | 275° |
| 2026-04-21 14:20 | 22.88503 | 50.90305 | 31752 ft | 386 kts | 275° |
| 2026-04-21 14:21 | 22.88857 | 50.84504 | 31748 ft | 386 kts | 275° |
| 2026-04-21 14:21 | 22.89210 | 50.78696 | 31751 ft | 386 kts | 275° |
| 2026-04-21 14:22 | 22.89551 | 50.72892 | 31752 ft | 386 kts | 275° |
| 2026-04-21 14:22 | 22.89888 | 50.67090 | 31755 ft | 385 kts | 275° |
| 2026-04-21 14:23 | 22.90072 | 50.61289 | 31757 ft | 386 kts | 268° |
| 2026-04-21 14:23 | 22.89554 | 50.55486 | 31757 ft | 386 kts | 268° |
| 2026-04-21 14:24 | 22.89425 | 50.49686 | 31755 ft | 384 kts | 274° |
| 2026-04-21 14:24 | 22.89738 | 50.43921 | 31756 ft | 383 kts | 276° |
| 2026-04-21 14:25 | 22.90156 | 50.38110 | 31762 ft | 393 kts | 276° |
| 2026-04-21 14:25 | 22.90527 | 50.32120 | 31765 ft | 401 kts | 275° |
| 2026-04-21 14:26 | 22.90848 | 50.26064 | 31766 ft | 402 kts | 275° |
| 2026-04-21 14:26 | 22.91159 | 50.19997 | 31766 ft | 405 kts | 275° |
| 2026-04-21 14:27 | 22.91481 | 50.13871 | 31763 ft | 407 kts | 275° |
| 2026-04-21 14:27 | 22.91806 | 50.07737 | 31761 ft | 408 kts | 275° |
| 2026-04-21 14:28 | 22.92129 | 50.01601 | 31764 ft | 407 kts | 275° |
| 2026-04-21 14:28 | 22.92448 | 49.95467 | 31763 ft | 407 kts | 275° |
| 2026-04-21 14:29 | 22.92764 | 49.89337 | 31766 ft | 407 kts | 275° |
| 2026-04-21 14:29 | 22.93078 | 49.83208 | 31766 ft | 407 kts | 275° |
| 2026-04-21 14:30 | 22.93390 | 49.77080 | 31765 ft | 407 kts | 275° |
| 2026-04-21 14:30 | 22.93699 | 49.70962 | 31763 ft | 406 kts | 275° |
| 2026-04-21 14:31 | 22.94005 | 49.64841 | 31763 ft | 406 kts | 275° |
| 2026-04-21 14:31 | 22.94309 | 49.58719 | 31760 ft | 406 kts | 275° |
| 2026-04-21 14:32 | 22.94610 | 49.52605 | 31762 ft | 406 kts | 275° |
| 2026-04-21 14:32 | 22.94909 | 49.46488 | 31757 ft | 406 kts | 275° |
| 2026-04-21 14:33 | 22.95203 | 49.40426 | 31772 ft | 404 kts | 275° |
| 2026-04-21 14:33 | 22.95494 | 49.34357 | 31781 ft | 402 kts | 275° |
| 2026-04-21 14:34 | 22.95783 | 49.28311 | 31775 ft | 401 kts | 275° |
| 2026-04-21 14:34 | 22.96068 | 49.22282 | 31775 ft | 400 kts | 275° |
| 2026-04-21 14:35 | 22.96350 | 49.16280 | 31764 ft | 399 kts | 275° |
| 2026-04-21 14:35 | 22.96630 | 49.10265 | 31768 ft | 399 kts | 275° |
| 2026-04-21 14:36 | 22.96909 | 49.04221 | 31759 ft | 398 kts | 275° |
| 2026-04-21 14:36 | 22.97182 | 48.98255 | 31764 ft | 398 kts | 275° |
| 2026-04-21 14:37 | 22.97454 | 48.92258 | 31758 ft | 398 kts | 275° |
| 2026-04-21 14:37 | 22.97723 | 48.86262 | 31757 ft | 398 kts | 275° |
| 2026-04-21 14:38 | 22.97991 | 48.80266 | 31760 ft | 398 kts | 274° |
| 2026-04-21 14:38 | 22.98256 | 48.74270 | 31760 ft | 398 kts | 274° |
| 2026-04-21 14:39 | 22.98519 | 48.68270 | 31759 ft | 398 kts | 274° |
| 2026-04-21 14:39 | 22.98779 | 48.62278 | 31761 ft | 398 kts | 274° |
| 2026-04-21 14:40 | 22.99037 | 48.56283 | 31760 ft | 398 kts | 274° |
| 2026-04-21 14:40 | 22.99293 | 48.50287 | 31761 ft | 398 kts | 274° |
| 2026-04-21 14:41 | 22.99546 | 48.44292 | 31761 ft | 397 kts | 274° |
| 2026-04-21 14:41 | 22.99797 | 48.38302 | 31759 ft | 397 kts | 274° |
| 2026-04-21 14:42 | 23.00004 | 48.33324 | 31757 ft | 397 kts | 274° |
| 2026-04-21 14:42 | 23.00251 | 48.27338 | 31763 ft | 397 kts | 274° |
| 2026-04-21 14:43 | 23.00495 | 48.21357 | 31760 ft | 397 kts | 274° |
| 2026-04-21 14:43 | 23.00736 | 48.15375 | 31761 ft | 396 kts | 274° |
| 2026-04-21 14:44 | 23.00976 | 48.09398 | 31761 ft | 396 kts | 274° |
| 2026-04-21 14:44 | 23.01212 | 48.03426 | 31763 ft | 396 kts | 274° |
| 2026-04-21 14:45 | 23.01447 | 47.97455 | 31760 ft | 396 kts | 274° |
| 2026-04-21 14:45 | 23.01678 | 47.91482 | 31763 ft | 396 kts | 274° |
| 2026-04-21 14:46 | 23.02054 | 47.85526 | 31755 ft | 395 kts | 282° |
| 2026-04-21 14:46 | 23.02944 | 47.82714 | 31754 ft | 397 kts | 295° |
| 2026-04-21 14:46 | 23.04481 | 47.80210 | 31753 ft | 402 kts | 307° |
| 2026-04-21 14:46 | 23.06593 | 47.78184 | 31753 ft | 412 kts | 320° |
| 2026-04-21 14:47 | 23.09096 | 47.76622 | 31753 ft | 418 kts | 327° |
| 2026-04-21 14:47 | 23.14418 | 47.73979 | 31751 ft | 420 kts | 327° |
| 2026-04-21 14:48 | 23.19566 | 47.71027 | 31754 ft | 416 kts | 323° |
| 2026-04-21 14:48 | 23.24462 | 47.67697 | 31753 ft | 415 kts | 320° |
| 2026-04-21 14:49 | 23.29299 | 47.64282 | 31758 ft | 415 kts | 321° |
| 2026-04-21 14:49 | 23.34187 | 47.60917 | 31764 ft | 416 kts | 321° |
| 2026-04-21 14:50 | 23.39106 | 47.57595 | 31769 ft | 416 kts | 322° |
| 2026-04-21 14:50 | 23.43842 | 47.54032 | 31772 ft | 412 kts | 316° |
| 2026-04-21 14:51 | 23.48473 | 47.50325 | 31773 ft | 414 kts | 319° |
| 2026-04-21 14:51 | 23.53321 | 47.46885 | 31776 ft | 417 kts | 322° |
| 2026-04-21 14:52 | 23.58250 | 47.43615 | 31776 ft | 418 kts | 322° |
| 2026-04-21 14:52 | 23.63216 | 47.40311 | 31776 ft | 418 kts | 322° |
| 2026-04-21 14:53 | 23.68151 | 47.36961 | 31777 ft | 418 kts | 321° |
| 2026-04-21 14:53 | 23.73072 | 47.33594 | 31783 ft | 418 kts | 321° |
| 2026-04-21 14:54 | 23.77998 | 47.30225 | 31783 ft | 418 kts | 321° |
| 2026-04-21 14:54 | 23.82927 | 47.26860 | 31781 ft | 418 kts | 321° |
| 2026-04-21 14:55 | 23.87868 | 47.23505 | 31782 ft | 419 kts | 322° |
| 2026-04-21 14:55 | 23.92888 | 47.20256 | 31783 ft | 419 kts | 322° |
| 2026-04-21 14:56 | 23.97852 | 47.16928 | 31788 ft | 418 kts | 321° |
| 2026-04-21 14:56 | 24.02777 | 47.13548 | 31791 ft | 418 kts | 321° |
| 2026-04-21 14:57 | 24.07684 | 47.10139 | 31796 ft | 417 kts | 320° |
| 2026-04-21 14:57 | 24.12668 | 47.06855 | 31795 ft | 424 kts | 328° |
| 2026-04-21 14:58 | 24.18030 | 47.04155 | 31796 ft | 425 kts | 328° |
| 2026-04-21 14:58 | 24.23435 | 47.01530 | 31807 ft | 426 kts | 330° |
| 2026-04-21 14:59 | 24.28952 | 46.99112 | 31810 ft | 427 kts | 331° |
| 2026-04-21 14:59 | 24.34467 | 46.96682 | 31811 ft | 427 kts | 330° |
| 2026-04-21 15:00 | 24.39929 | 46.94149 | 31807 ft | 426 kts | 330° |
| 2026-04-21 15:00 | 24.45370 | 46.91580 | 31807 ft | 426 kts | 329° |
| 2026-04-21 15:01 | 24.50825 | 46.89016 | 31813 ft | 427 kts | 330° |
| 2026-04-21 15:01 | 24.56434 | 46.86772 | 31814 ft | 440 kts | 344° |
| 2026-04-21 15:01 | 24.59531 | 46.86703 | 31812 ft | 457 kts | 1° |
| 2026-04-21 15:02 | 24.62610 | 46.87583 | 31816 ft | 468 kts | 10° |
| 2026-04-21 15:02 | 24.68841 | 46.89908 | 31812 ft | 471 kts | 12° |
| 2026-04-21 15:03 | 24.73590 | 46.91744 | 31812 ft | 472 kts | 12° |
| 2026-04-21 15:03 | 24.79832 | 46.93966 | 31813 ft | 471 kts | 10° |
| 2026-04-21 15:04 | 24.86104 | 46.96109 | 31829 ft | 473 kts | 11° |
| 2026-04-21 15:04 | 24.92374 | 46.98355 | 31823 ft | 476 kts | 12° |
| 2026-04-21 15:04 | 24.95511 | 46.99553 | 31589 ft | 477 kts | 13° |
| 2026-04-21 15:05 | 24.98646 | 47.00752 | 31350 ft | 477 kts | 13° |
| 2026-04-21 15:05 | 25.04956 | 47.03009 | 30877 ft | 476 kts | 11° |
| 2026-04-21 15:05 | 25.08129 | 47.04067 | 30657 ft | 477 kts | 10° |
| 2026-04-21 15:06 | 25.11303 | 47.05129 | 30424 ft | 476 kts | 10° |
| 2026-04-21 15:06 | 25.14480 | 47.06161 | 30194 ft | 477 kts | 9° |
| 2026-04-21 15:06 | 25.17674 | 47.07192 | 29964 ft | 478 kts | 10° |
| 2026-04-21 15:06 | 25.20862 | 47.08254 | 29702 ft | 480 kts | 11° |
| 2026-04-21 15:07 | 25.24034 | 47.09357 | 29427 ft | 475 kts | 11° |
| 2026-04-21 15:07 | 25.27161 | 47.10486 | 29158 ft | 471 kts | 12° |
| 2026-04-21 15:07 | 25.30262 | 47.11626 | 28905 ft | 468 kts | 12° |
| 2026-04-21 15:07 | 25.33340 | 47.12760 | 28851 ft | 464 kts | 12° |
| 2026-04-21 15:08 | 25.36332 | 47.13942 | 28868 ft | 450 kts | 14° |
| 2026-04-21 15:08 | 25.39240 | 47.15139 | 28871 ft | 443 kts | 12° |
| 2026-04-21 15:08 | 25.45090 | 47.17095 | 28872 ft | 437 kts | 8° |
| 2026-04-21 15:09 | 25.50934 | 47.18965 | 28872 ft | 438 kts | 9° |
| 2026-04-21 15:09 | 25.56766 | 47.21048 | 28876 ft | 448 kts | 12° |
| 2026-04-21 15:10 | 25.59742 | 47.22201 | 28874 ft | 459 kts | 12° |
| 2026-04-21 15:10 | 25.62790 | 47.23381 | 28874 ft | 468 kts | 12° |
| 2026-04-21 15:10 | 25.69068 | 47.25725 | 28874 ft | 481 kts | 11° |
| 2026-04-21 15:11 | 25.75411 | 47.28221 | 28875 ft | 490 kts | 20° |
| 2026-04-21 15:11 | 25.81184 | 47.32376 | 28875 ft | 500 kts | 30° |
| 2026-04-21 15:12 | 25.86847 | 47.36862 | 28876 ft | 501 kts | 30° |
| 2026-04-21 15:12 | 25.92513 | 47.41361 | 28880 ft | 501 kts | 30° |
| 2026-04-21 15:13 | 25.98198 | 47.45844 | 28878 ft | 501 kts | 29° |
| 2026-04-21 15:13 | 26.03891 | 47.50213 | 28876 ft | 501 kts | 29° |
| 2026-04-21 15:14 | 26.09589 | 47.54696 | 28878 ft | 502 kts | 30° |
| 2026-04-21 15:14 | 26.15227 | 47.59303 | 28871 ft | 503 kts | 30° |
| 2026-04-21 15:15 | 26.20890 | 47.63875 | 28860 ft | 503 kts | 30° |
| 2026-04-21 15:15 | 26.25856 | 47.69452 | 28864 ft | 518 kts | 53° |
| 2026-04-21 15:16 | 26.27569 | 47.72980 | 28865 ft | 523 kts | 65° |
| 2026-04-21 15:16 | 26.28653 | 47.76850 | 28864 ft | 526 kts | 76° |
| 2026-04-21 15:16 | 26.30265 | 47.84804 | 28865 ft | 526 kts | 76° |
| 2026-04-21 15:17 | 26.31898 | 47.92762 | 28865 ft | 527 kts | 76° |
| 2026-04-21 15:17 | 26.33537 | 48.00723 | 28870 ft | 527 kts | 76° |
| 2026-04-21 15:18 | 26.35168 | 48.08693 | 28877 ft | 527 kts | 76° |
| 2026-04-21 15:18 | 26.36996 | 48.16592 | 28877 ft | 526 kts | 72° |
| 2026-04-21 15:19 | 26.39017 | 48.24435 | 28877 ft | 526 kts | 74° |
| 2026-04-21 15:19 | 26.40774 | 48.32356 | 28880 ft | 526 kts | 75° |
| 2026-04-21 15:20 | 26.42457 | 48.40283 | 28874 ft | 526 kts | 77° |
| 2026-04-21 15:20 | 26.44003 | 48.48259 | 28869 ft | 525 kts | 77° |
| 2026-04-21 15:21 | 26.45544 | 48.56224 | 28873 ft | 525 kts | 77° |
| 2026-04-21 15:21 | 26.47118 | 48.64186 | 28869 ft | 525 kts | 78° |
| 2026-04-21 15:22 | 26.47796 | 48.72292 | 28867 ft | 525 kts | 87° |
| 2026-04-21 15:22 | 26.48110 | 48.80423 | 28860 ft | 524 kts | 88° |
| 2026-04-21 15:23 | 26.48320 | 48.88559 | 28857 ft | 524 kts | 89° |
| 2026-04-21 15:23 | 26.48469 | 48.96701 | 28855 ft | 525 kts | 89° |
| 2026-04-21 15:24 | 26.48620 | 49.04841 | 28858 ft | 524 kts | 89° |
| 2026-04-21 15:24 | 26.48789 | 49.12975 | 28852 ft | 524 kts | 89° |
| 2026-04-21 15:25 | 26.48780 | 49.21042 | 28865 ft | 519 kts | 92° |
| 2026-04-21 15:25 | 26.48731 | 49.25033 | 28856 ft | 506 kts | 91° |
| 2026-04-21 15:25 | 26.48725 | 49.28893 | 28860 ft | 489 kts | 90° |
| 2026-04-21 15:26 | 26.48766 | 49.32651 | 28729 ft | 480 kts | 90° |
| 2026-04-21 15:26 | 26.48842 | 49.36332 | 28465 ft | 470 kts | 89° |
| 2026-04-21 15:26 | 26.48903 | 49.38728 | 28290 ft | 464 kts | 89° |
| 2026-04-21 15:26 | 26.49027 | 49.43504 | 27948 ft | 457 kts | 89° |
| 2026-04-21 15:27 | 26.49110 | 49.47041 | 27687 ft | 455 kts | 89° |
| 2026-04-21 15:27 | 26.49159 | 49.49372 | 27520 ft | 453 kts | 89° |
| 2026-04-21 15:27 | 26.49224 | 49.52874 | 27256 ft | 449 kts | 90° |
| 2026-04-21 15:27 | 26.49283 | 49.56347 | 26781 ft | 447 kts | 90° |
| 2026-04-21 15:28 | 26.49394 | 49.60931 | 26134 ft | 444 kts | 89° |
| 2026-04-21 15:28 | 26.49491 | 49.64364 | 25646 ft | 443 kts | 89° |
| 2026-04-21 15:28 | 26.49553 | 49.66689 | 25294 ft | 442 kts | 89° |
| 2026-04-21 15:28 | 26.49655 | 49.71238 | 24407 ft | 448 kts | 90° |
| 2026-04-21 15:29 | 26.49697 | 49.73597 | 23951 ft | 450 kts | 90° |
| 2026-04-21 15:29 | 26.49748 | 49.77106 | 23252 ft | 454 kts | 91° |
| 2026-04-21 15:29 | 26.49586 | 49.80624 | 22473 ft | 455 kts | 97° |
| 2026-04-21 15:29 | 26.49327 | 49.84163 | 21704 ft | 458 kts | 96° |
| 2026-04-21 15:30 | 26.49123 | 49.87673 | 20963 ft | 461 kts | 95° |
| 2026-04-21 15:30 | 26.48947 | 49.91250 | 20229 ft | 463 kts | 94° |
| 2026-04-21 15:30 | 26.48782 | 49.94836 | 19515 ft | 464 kts | 94° |
| 2026-04-21 15:30 | 26.48613 | 49.98399 | 18809 ft | 455 kts | 94° |
| 2026-04-21 15:31 | 26.48437 | 50.01881 | 18128 ft | 446 kts | 95° |
| 2026-04-21 15:31 | 26.48252 | 50.05309 | 17342 ft | 438 kts | 95° |
| 2026-04-21 15:31 | 26.48065 | 50.08648 | 16566 ft | 431 kts | 96° |
| 2026-04-21 15:31 | 26.47875 | 50.11948 | 15825 ft | 424 kts | 96° |
| 2026-04-21 15:32 | 26.47672 | 50.15200 | 15106 ft | 417 kts | 97° |
| 2026-04-21 15:32 | 26.47465 | 50.18411 | 14400 ft | 411 kts | 97° |
| 2026-04-21 15:32 | 26.47265 | 50.21573 | 13706 ft | 406 kts | 97° |
| 2026-04-21 15:32 | 26.47075 | 50.24689 | 12951 ft | 399 kts | 97° |
| 2026-04-21 15:33 | 26.46895 | 50.27761 | 12190 ft | 393 kts | 97° |
| 2026-04-21 15:33 | 26.46736 | 50.30782 | 11468 ft | 387 kts | 97° |
| 2026-04-21 15:33 | 26.46587 | 50.33757 | 10749 ft | 381 kts | 97° |
| 2026-04-21 15:33 | 26.46480 | 50.36684 | 10056 ft | 375 kts | 97° |
| 2026-04-21 15:34 | 26.46060 | 50.39409 | 9727 ft | 350 kts | 113° |
| 2026-04-21 15:34 | 26.45317 | 50.41893 | 9607 ft | 328 kts | 113° |
| 2026-04-21 15:34 | 26.44681 | 50.44283 | 9266 ft | 316 kts | 111° |
| 2026-04-21 15:34 | 26.44081 | 50.46620 | 8772 ft | 311 kts | 111° |
| 2026-04-21 15:35 | 26.43472 | 50.48913 | 8241 ft | 306 kts | 112° |
| 2026-04-21 15:35 | 26.42843 | 50.51169 | 7734 ft | 302 kts | 112° |
| 2026-04-21 15:35 | 26.42201 | 50.53385 | 7221 ft | 298 kts | 112° |
| 2026-04-21 15:35 | 26.41552 | 50.55564 | 7027 ft | 295 kts | 112° |
| 2026-04-21 15:36 | 26.40894 | 50.57745 | 6999 ft | 297 kts | 112° |
| 2026-04-21 15:36 | 26.40233 | 50.59926 | 7000 ft | 296 kts | 112° |
| 2026-04-21 15:36 | 26.39576 | 50.62098 | 7002 ft | 295 kts | 112° |
| 2026-04-21 15:36 | 26.38919 | 50.64265 | 7004 ft | 295 kts | 112° |
| 2026-04-21 15:37 | 26.38262 | 50.66438 | 6949 ft | 295 kts | 112° |
| 2026-04-21 15:37 | 26.37613 | 50.68590 | 6622 ft | 292 kts | 112° |
| 2026-04-21 15:37 | 26.36916 | 50.70697 | 6286 ft | 287 kts | 118° |
| 2026-04-21 15:37 | 26.35920 | 50.72599 | 5930 ft | 282 kts | 126° |
| 2026-04-21 15:38 | 26.34857 | 50.74431 | 5530 ft | 281 kts | 126° |
| 2026-04-21 15:38 | 26.33799 | 50.76264 | 5139 ft | 281 kts | 124° |
| 2026-04-21 15:38 | 26.32737 | 50.78091 | 4734 ft | 281 kts | 124° |
| 2026-04-21 15:38 | 26.31648 | 50.79898 | 4343 ft | 280 kts | 125° |
| 2026-04-21 15:39 | 26.30525 | 50.81657 | 3695 ft | 279 kts | 125° |
| 2026-04-21 15:39 | 26.29172 | 50.83188 | 3037 ft | 279 kts | 148° |
| 2026-04-21 15:39 | 26.27361 | 50.83872 | 2472 ft | 274 kts | 177° |
| 2026-04-21 15:39 | 26.25536 | 50.83865 | 2320 ft | 252 kts | 188° |
| 2026-04-21 15:40 | 26.23923 | 50.83236 | 2118 ft | 243 kts | 210° |
| 2026-04-21 15:40 | 26.22442 | 50.82310 | 2013 ft | 247 kts | 212° |
| 2026-04-21 15:40 | 26.21046 | 50.81229 | 1993 ft | 243 kts | 229° |
| 2026-04-21 15:40 | 26.20113 | 50.79720 | 1992 ft | 229 kts | 251° |
| 2026-04-21 15:41 | 26.19737 | 50.78065 | 1997 ft | 214 kts | 271° |
| 2026-04-21 15:41 | 26.19854 | 50.76477 | 1999 ft | 202 kts | 288° |
| 2026-04-21 15:41 | 26.20333 | 50.75071 | 2006 ft | 186 kts | 303° |
| 2026-04-21 15:41 | 26.20993 | 50.73897 | 1839 ft | 178 kts | 308° |
| 2026-04-21 15:42 | 26.21655 | 50.72753 | 1649 ft | 168 kts | 308° |
| 2026-04-21 15:42 | 26.22269 | 50.71692 | 1434 ft | 158 kts | 310° |
| 2026-04-21 15:42 | 26.22837 | 50.70707 | 1259 ft | 147 kts | 312° |
| 2026-04-21 15:42 | 26.23385 | 50.69763 | 1062 ft | 144 kts | 311° |
| 2026-04-21 15:43 | 26.23923 | 50.68833 | 883 ft | 142 kts | 310° |
| 2026-04-21 15:43 | 26.24277 | 50.68222 | 766 ft | 144 kts | 310° |
| 2026-04-21 15:43 | 26.24770 | 50.67366 | 624 ft | 143 kts | 311° |
| 2026-04-21 15:43 | 26.25293 | 50.66461 | 419 ft | 139 kts | 313° |
| 2026-04-21 15:44 | 26.25824 | 50.65556 | 224 ft | 141 kts | 310° |
| 2026-04-21 15:44 | 26.26339 | 50.64634 | 38 ft | 139 kts | 308° |
| 2026-04-21 15:44 | 26.26819 | 50.63827 | 17 ft | 104 kts | 303° |
| 2026-04-21 15:44 | 26.27117 | 50.63306 | 14 ft | 58 kts | 302° |
| 2026-04-21 15:45 | 26.27303 | 50.62983 | 16 ft | 38 kts | 302° |
| 2026-04-21 15:45 | 26.27411 | 50.62795 | 18 ft | 23 kts | 305° |
| 2026-04-21 15:45 | 26.27463 | 50.62686 | 17 ft | 13 kts | 263° |
| 2026-04-21 15:45 | 26.27413 | 50.62622 | 17 ft | 9 kts | 215° |
| 2026-04-21 15:46 | 26.27364 | 50.62586 | 17 ft | 8 kts | 212° |
| 2026-04-21 15:46 | 26.27322 | 50.62553 | 18 ft | 7 kts | 215° |
| 2026-04-21 15:46 | 26.27284 | 50.62528 | 17 ft | 6 kts | 203° |
| 2026-04-21 15:46 | 26.27247 | 50.62526 | 18 ft | 6 kts | 166° |
| 2026-04-21 15:47 | 26.27215 | 50.62561 | 17 ft | 9 kts | 122° |
| 2026-04-21 15:47 | 26.27171 | 50.62634 | 17 ft | 14 kts | 124° |
| 2026-04-21 15:47 | 26.27108 | 50.62740 | 17 ft | 18 kts | 122° |
| 2026-04-21 15:47 | 26.27037 | 50.62866 | 18 ft | 20 kts | 121° |
| 2026-04-21 15:48 | 26.26985 | 50.62956 | 17 ft | 10 kts | 125° |
| 2026-04-21 15:48 | 26.26936 | 50.62952 | 17 ft | 7 kts | 216° |
| 2026-04-21 15:48 | 26.26901 | 50.62927 | 17 ft | 4 kts | 211° |
| 2026-04-21 15:48 | 26.26886 | 50.62917 | 17 ft | 1 kts | 211° |
| 2026-04-21 15:49 | 26.26885 | 50.62917 | 17 ft | 0 kts | 211° |